createdAt,value
2019-05-02T00:02:04.734Z,46.90
2019-05-02T00:04:35.746Z,46.80
2019-05-02T00:07:07.876Z,46.70
2019-05-02T00:09:47.493Z,46.60
2019-05-02T00:12:15.638Z,46.70
2019-05-02T00:14:46.595Z,46.80
2019-05-02T00:17:20.147Z,46.80
2019-05-02T00:19:51.278Z,46.90
2019-05-02T00:22:22.433Z,46.90
2019-05-02T00:24:53.111Z,46.80
2019-05-02T00:27:24.243Z,46.90
2019-05-02T00:29:58.678Z,46.90
2019-05-02T00:32:27.462Z,47.00
2019-05-02T00:34:58.382Z,46.90
2019-05-02T00:37:29.311Z,46.90
2019-05-02T00:40:01.810Z,47.00
2019-05-02T00:42:33.134Z,47.20
2019-05-02T00:45:04.942Z,47.10
2019-05-02T00:47:47.906Z,47.20
2019-05-02T00:50:18.776Z,47.30
2019-05-02T00:52:51.129Z,47.30
2019-05-02T00:55:22.263Z,47.80
2019-05-02T00:57:55.627Z,47.20
2019-05-02T01:00:26.503Z,47.10
2019-05-02T01:03:02.161Z,47.00
2019-05-02T01:05:33.920Z,46.50
2019-05-02T01:08:06.096Z,46.90
2019-05-02T01:10:37.796Z,47.00
2019-05-02T01:13:09.073Z,46.90
2019-05-02T01:15:44.107Z,46.90
2019-05-02T01:18:13.056Z,47.40
2019-05-02T01:20:44.363Z,46.90
2019-05-02T01:23:15.315Z,46.90
2019-05-02T01:25:47.402Z,47.00
2019-05-02T01:28:36.633Z,47.00
2019-05-02T01:31:26.765Z,47.00
2019-05-02T01:34:18.074Z,47.00
2019-05-02T01:36:54.254Z,47.00
2019-05-02T01:39:25.414Z,47.10
2019-05-02T01:41:59.949Z,47.10
2019-05-02T01:44:31.133Z,47.80
2019-05-02T01:47:02.286Z,47.10
2019-05-02T01:49:33.221Z,47.10
2019-05-02T01:52:04.437Z,47.10
2019-05-02T01:54:35.313Z,47.00
2019-05-02T01:57:08.642Z,47.10
2019-05-02T01:59:39.093Z,47.10
2019-05-02T02:02:10.117Z,47.10
2019-05-02T02:04:40.793Z,47.10
2019-05-02T02:07:14.958Z,47.10
2019-05-02T02:09:45.787Z,47.20
2019-05-02T02:12:16.697Z,47.20
2019-05-02T02:14:48.022Z,47.20
2019-05-02T02:17:20.318Z,47.30
2019-05-02T02:19:55.706Z,47.20
2019-05-02T02:22:45.389Z,47.30
2019-05-02T02:25:43.157Z,47.20
2019-05-02T02:28:14.205Z,47.20
2019-05-02T02:30:45.197Z,47.20
2019-05-02T02:33:15.813Z,47.20
2019-05-02T02:35:50.347Z,47.20
2019-05-02T02:38:19.309Z,47.10
2019-05-02T02:40:50.188Z,47.00
2019-05-02T02:43:33.410Z,47.00
2019-05-02T02:46:14.916Z,46.90
2019-05-02T02:48:45.569Z,46.90
2019-05-02T02:51:23.869Z,47.00
2019-05-02T02:53:49.160Z,47.00
2019-05-02T02:56:20.202Z,47.00
2019-05-02T02:58:50.988Z,47.00
2019-05-02T03:01:28.936Z,47.10
2019-05-02T03:03:54.219Z,47.00
2019-05-02T03:06:25.090Z,47.00
2019-05-02T03:08:56.194Z,47.10
2019-05-02T03:11:29.732Z,47.10
2019-05-02T03:14:19.250Z,47.00
2019-05-02T03:16:50.126Z,47.10
2019-05-02T03:19:22.907Z,47.10
2019-05-02T03:22:01.143Z,47.10
2019-05-02T03:24:28.470Z,46.90
2019-05-02T03:26:59.710Z,47.00
2019-05-02T03:29:41.069Z,47.00
2019-05-02T03:32:14.686Z,47.00
2019-05-02T03:34:47.762Z,46.90
2019-05-02T03:37:13.744Z,47.50
2019-05-02T03:39:40.808Z,46.90
2019-05-02T03:42:11.883Z,46.80
2019-05-02T03:44:54.593Z,46.90
2019-05-02T03:47:15.843Z,46.80
2019-05-02T03:49:48.786Z,46.80
2019-05-02T03:52:19.479Z,46.80
2019-05-02T03:54:52.615Z,46.80
2019-05-02T03:57:31.683Z,46.80
2019-05-02T03:59:56.265Z,46.80
2019-05-02T04:02:27.007Z,46.80
2019-05-02T04:05:00.668Z,46.90
2019-05-02T04:07:39.805Z,46.80
2019-05-02T04:10:03.753Z,46.80
2019-05-02T04:12:35.282Z,46.80
2019-05-02T04:15:09.503Z,46.80
2019-05-02T04:17:39.565Z,46.80
2019-05-02T04:20:12.659Z,46.70
2019-05-02T04:22:48.870Z,46.70
2019-05-02T04:25:15.620Z,46.20
2019-05-02T04:27:46.522Z,46.70
2019-05-02T04:30:17.181Z,46.70
2019-05-02T04:32:49.605Z,46.70
2019-05-02T04:35:21.185Z,46.70
2019-05-02T04:37:52.216Z,46.70
2019-05-02T04:40:23.031Z,46.70
2019-05-02T04:43:01.930Z,46.70
2019-05-02T04:45:38.351Z,46.60
2019-05-02T04:48:03.907Z,46.60
2019-05-02T04:50:32.048Z,46.70
2019-05-02T04:53:03.011Z,46.60
2019-05-02T04:55:33.841Z,46.70
2019-05-02T04:58:04.680Z,46.60
2019-05-02T05:00:38.971Z,46.60
2019-05-02T05:03:15.646Z,46.50
2019-05-02T05:05:40.480Z,46.60
2019-05-02T05:08:11.583Z,46.60
2019-05-02T05:10:45.017Z,46.60
2019-05-02T05:13:19.439Z,46.70
2019-05-02T05:15:51.735Z,46.90
2019-05-02T05:18:23.403Z,46.90
2019-05-02T05:20:54.396Z,47.40
2019-05-02T05:23:39.926Z,52.20
2019-05-02T05:26:11.233Z,50.10
2019-05-02T05:28:44.349Z,49.10
2019-05-02T05:31:18.468Z,48.70
2019-05-02T05:33:47.902Z,48.60
2019-05-02T05:36:20.064Z,48.60
2019-05-02T05:38:51.887Z,48.60
2019-05-02T05:41:23.345Z,48.50
2019-05-02T05:43:54.289Z,48.40
2019-05-02T05:46:27.777Z,48.00
2019-05-02T05:48:58.477Z,47.70
2019-05-02T05:51:29.289Z,46.50
2019-05-02T05:54:03.197Z,46.70
2019-05-02T05:56:39.644Z,45.40
2019-05-02T05:59:07.616Z,46.90
2019-05-02T06:01:38.535Z,47.10
2019-05-02T06:04:13.950Z,46.90
2019-05-02T06:06:42.294Z,47.00
2019-05-02T06:09:13.970Z,46.70
2019-05-02T06:11:44.864Z,46.70
2019-05-02T06:14:20.042Z,46.10
2019-05-02T06:16:51.674Z,46.00
2019-05-02T06:19:21.228Z,46.30
2019-05-02T06:21:52.124Z,46.40
2019-05-02T06:24:22.998Z,46.90
2019-05-02T06:26:53.799Z,46.80
2019-05-02T06:29:25.203Z,46.70
2019-05-02T06:31:56.329Z,46.60
2019-05-02T06:34:26.913Z,46.60
2019-05-02T06:36:57.894Z,46.80
2019-05-02T06:39:31.957Z,46.60
2019-05-02T06:42:01.610Z,46.80
2019-05-02T06:44:32.488Z,46.70
2019-05-02T06:47:04.210Z,46.80
2019-05-02T06:49:35.735Z,46.70
2019-05-02T06:52:07.382Z,46.80
2019-05-02T06:54:39.153Z,46.70
2019-05-02T06:57:09.818Z,46.80
2019-05-02T06:59:40.547Z,46.80
2019-05-02T07:02:11.552Z,46.80
2019-05-02T07:04:42.512Z,43.20
2019-05-02T07:07:14.826Z,43.60
2019-05-02T07:09:47.276Z,44.90
2019-05-02T07:12:19.899Z,45.60
2019-05-02T07:14:56.118Z,45.60
2019-05-02T07:17:40.489Z,45.40
2019-05-02T07:20:12.539Z,45.50
2019-05-02T07:22:45.695Z,45.00
2019-05-02T07:25:18.784Z,44.30
2019-05-02T07:27:50.494Z,44.00
2019-05-02T07:30:22.641Z,44.50
2019-05-02T07:32:56.276Z,44.60
2019-05-02T07:35:28.229Z,44.60
2019-05-02T07:38:00.434Z,43.80
2019-05-02T07:40:32.326Z,44.60
2019-05-02T07:43:04.784Z,44.70
2019-05-02T07:45:40.231Z,44.80
2019-05-02T07:48:12.565Z,44.90
2019-05-02T07:50:46.564Z,44.80
2019-05-02T07:53:19.698Z,44.90
2019-05-02T07:55:50.714Z,44.90
2019-05-02T07:58:21.477Z,46.10
2019-05-02T08:00:52.237Z,45.70
2019-05-02T08:03:22.904Z,46.10
2019-05-02T08:05:54.462Z,45.90
2019-05-02T08:08:29.830Z,45.90
2019-05-02T08:11:01.787Z,44.70
2019-05-02T08:13:31.622Z,44.40
2019-05-02T08:16:02.418Z,45.00
2019-05-02T08:18:33.569Z,44.70
2019-05-02T08:21:04.456Z,44.70
2019-05-02T08:23:35.324Z,44.70
2019-05-02T08:26:06.238Z,44.40
2019-05-02T08:28:52.023Z,44.40
2019-05-02T08:31:21.312Z,44.30
2019-05-02T08:33:52.967Z,44.60
2019-05-02T08:36:25.126Z,44.60
2019-05-02T08:38:56.215Z,44.60
2019-05-02T08:41:27.046Z,44.60
2019-05-02T08:43:57.847Z,44.70
2019-05-02T08:46:28.694Z,44.70
2019-05-02T08:48:59.638Z,44.60
2019-05-02T08:51:30.605Z,44.60
2019-05-02T08:54:01.300Z,44.70
2019-05-02T08:56:34.905Z,44.80
2019-05-02T08:59:05.028Z,44.60
2019-05-02T09:01:35.925Z,44.60
2019-05-02T09:04:06.776Z,44.60
2019-05-02T09:06:37.625Z,44.60
2019-05-02T09:09:10.036Z,44.60
2019-05-02T09:11:41.533Z,44.60
2019-05-02T09:14:12.585Z,44.70
2019-05-02T09:16:43.151Z,44.60
2019-05-02T09:19:21.234Z,44.50
2019-05-02T09:21:46.658Z,44.60
2019-05-02T09:24:21.318Z,44.70
2019-05-02T09:26:51.786Z,44.60
2019-05-02T09:29:22.445Z,44.50
2019-05-02T09:31:53.426Z,44.50
2019-05-02T09:34:26.612Z,44.60
2019-05-02T09:36:56.837Z,44.80
2019-05-02T09:39:34.688Z,44.80
2019-05-02T09:42:02.010Z,44.70
2019-05-02T09:44:33.250Z,44.70
2019-05-02T09:47:04.342Z,44.70
2019-05-02T09:49:35.300Z,44.70
2019-05-02T09:52:06.139Z,44.60
2019-05-02T09:54:41.792Z,44.60
2019-05-02T09:57:09.350Z,44.80
2019-05-02T09:59:43.408Z,44.80
2019-05-02T10:02:13.139Z,45.00
2019-05-02T10:04:44.168Z,44.90
2019-05-02T10:07:15.598Z,44.80
2019-05-02T10:09:46.620Z,44.70
2019-05-02T10:12:17.415Z,44.80
2019-05-02T10:14:48.586Z,44.80
2019-05-02T10:17:19.513Z,44.80
2019-05-02T10:19:54.964Z,44.60
2019-05-02T10:22:26.318Z,44.40
2019-05-02T10:24:55.552Z,44.30
2019-05-02T10:27:26.259Z,44.20
2019-05-02T10:29:57.316Z,44.10
2019-05-02T10:32:28.356Z,44.40
2019-05-02T10:34:59.423Z,44.60
2019-05-02T10:37:38.391Z,44.70
2019-05-02T10:40:07.787Z,44.60
2019-05-02T10:42:38.755Z,44.70
2019-05-02T10:45:13.006Z,44.80
2019-05-02T10:47:42.572Z,44.60
2019-05-02T10:50:18.873Z,44.50
2019-05-02T10:52:54.075Z,44.60
2019-05-02T10:55:24.864Z,44.60
2019-05-02T10:57:55.639Z,44.40
2019-05-02T11:00:33.522Z,44.40
2019-05-02T11:03:24.970Z,44.40
2019-05-02T11:06:05.542Z,44.30
2019-05-02T11:08:36.815Z,44.50
2019-05-02T11:11:06.403Z,44.40
2019-05-02T11:14:05.785Z,44.40
2019-05-02T11:17:01.875Z,44.40
2019-05-02T11:19:41.996Z,44.30
2019-05-02T11:22:12.849Z,44.40
2019-05-02T11:24:43.683Z,44.20
2019-05-02T11:27:14.381Z,44.10
2019-05-02T11:29:45.217Z,44.00
2019-05-02T11:32:16.190Z,43.90
2019-05-02T11:34:47.163Z,44.10
2019-05-02T11:37:17.906Z,44.20
2019-05-02T11:39:52.452Z,44.30
2019-05-02T11:42:27.165Z,44.20
2019-05-02T11:44:58.073Z,44.20
2019-05-02T11:47:32.723Z,44.30
2019-05-02T11:50:08.387Z,44.30
2019-05-02T11:52:42.283Z,44.30
2019-05-02T11:55:18.990Z,44.40
2019-05-02T11:57:54.246Z,44.40
2019-05-02T12:00:26.039Z,43.80
2019-05-02T12:03:32.396Z,44.20
2019-05-02T12:06:02.040Z,46.40
2019-05-02T12:08:39.433Z,45.90
2019-05-02T12:11:13.914Z,48.70
2019-05-02T12:13:47.221Z,50.30
2019-05-02T12:16:19.432Z,47.70
2019-05-02T12:18:51.103Z,46.30
2019-05-02T12:21:22.890Z,45.80
2019-05-02T12:23:54.078Z,45.10
2019-05-02T12:26:25.083Z,44.80
2019-05-02T12:28:55.890Z,44.50
2019-05-02T12:31:32.519Z,44.70
2019-05-02T12:34:05.784Z,45.00
2019-05-02T12:36:36.708Z,45.10
2019-05-02T12:39:13.079Z,45.20
2019-05-02T12:41:47.532Z,44.60
2019-05-02T12:44:18.664Z,45.10
2019-05-02T12:46:51.880Z,45.30
2019-05-02T12:49:27.713Z,45.40
2019-05-02T12:51:56.011Z,45.40
2019-05-02T12:54:27.505Z,45.40
2019-05-02T12:56:58.906Z,45.50
2019-05-02T12:59:32.081Z,45.70
2019-05-02T13:02:05.727Z,45.50
2019-05-02T13:04:36.533Z,45.50
2019-05-02T13:07:07.499Z,45.20
2019-05-02T13:09:38.729Z,45.00
2019-05-02T13:12:14.749Z,44.50
2019-05-02T13:14:45.838Z,44.80
2019-05-02T13:17:17.090Z,45.10
2019-05-02T13:19:58.345Z,45.50
2019-05-02T13:22:39.449Z,45.50
2019-05-02T13:25:13.378Z,46.00
2019-05-02T13:27:47.984Z,46.30
2019-05-02T13:30:25.795Z,46.70
2019-05-02T13:33:00.166Z,46.70
2019-05-02T13:35:39.179Z,46.80
2019-05-02T13:38:10.325Z,47.20
2019-05-02T13:40:46.551Z,46.90
2019-05-02T13:43:17.441Z,46.90
2019-05-02T13:46:04.521Z,47.00
2019-05-02T13:48:35.530Z,46.90
2019-05-02T13:51:06.476Z,46.60
2019-05-02T13:53:40.015Z,46.70
2019-05-02T13:56:47.835Z,46.40
2019-05-02T13:59:19.052Z,45.90
2019-05-02T14:01:52.070Z,46.00
2019-05-02T14:04:23.606Z,45.80
2019-05-02T14:06:55.844Z,45.90
2019-05-02T14:09:35.476Z,45.90
2019-05-02T14:12:21.852Z,45.70
2019-05-02T14:14:52.947Z,45.70
2019-05-02T14:17:24.009Z,45.60
2019-05-02T14:20:07.836Z,45.60
2019-05-02T14:22:29.402Z,45.40
2019-05-02T14:25:01.908Z,45.60
2019-05-02T14:27:33.119Z,50.30
2019-05-02T14:30:03.983Z,50.30
2019-05-02T14:32:35.678Z,49.70
2019-05-02T14:35:13.615Z,51.80
2019-05-02T14:37:44.353Z,52.90
2019-05-02T14:40:25.052Z,50.70
2019-05-02T14:42:57.791Z,49.30
2019-05-02T14:45:31.345Z,48.40
2019-05-02T14:48:17.962Z,48.60
2019-05-02T14:50:36.452Z,47.80
2019-05-02T14:53:05.306Z,47.60
2019-05-02T14:55:38.733Z,47.30
2019-05-02T14:58:09.559Z,46.90
2019-05-02T15:00:47.770Z,46.80
2019-05-02T15:03:19.053Z,46.70
2019-05-02T15:05:48.123Z,46.60
2019-05-02T15:08:19.452Z,46.60
2019-05-02T15:10:55.765Z,46.70
2019-05-02T15:13:23.070Z,46.60
2019-05-02T15:15:53.913Z,46.50
2019-05-02T15:18:25.275Z,46.50
2019-05-02T15:20:58.083Z,46.50
2019-05-02T15:23:29.031Z,46.70
2019-05-02T15:25:59.475Z,46.60
2019-05-02T15:28:37.218Z,46.60
2019-05-02T15:31:12.573Z,46.50
2019-05-02T15:33:56.213Z,46.40
2019-05-02T15:36:26.878Z,46.20
2019-05-02T15:41:32.600Z,46.20
2019-05-02T15:44:03.342Z,47.00
2019-05-02T15:46:34.566Z,46.50
2019-05-02T15:49:05.916Z,46.50
2019-05-02T15:51:37.996Z,46.60
2019-05-02T15:54:12.515Z,46.70
2019-05-02T15:57:00.785Z,46.80
2019-05-02T15:59:37.442Z,46.90
2019-05-02T16:02:12.771Z,46.90
2019-05-02T16:04:44.498Z,46.90
2019-05-02T16:07:15.895Z,47.00
2019-05-02T16:09:46.773Z,46.80
2019-05-02T16:12:19.543Z,46.90
2019-05-02T16:14:50.469Z,46.60
2019-05-02T16:17:25.623Z,46.70
2019-05-02T16:20:06.876Z,46.70
2019-05-02T16:22:32.006Z,46.70
2019-05-02T16:25:05.665Z,46.70
2019-05-02T16:27:49.361Z,46.50
2019-05-02T16:30:22.399Z,46.50
2019-05-02T16:32:57.063Z,46.40
2019-05-02T16:35:28.910Z,46.40
2019-05-02T16:37:59.825Z,46.50
2019-05-02T16:40:34.300Z,46.40
2019-05-02T16:43:03.322Z,46.30
2019-05-02T16:45:34.500Z,46.80
2019-05-02T16:48:05.745Z,46.80
2019-05-02T16:50:37.110Z,46.80
2019-05-02T16:53:08.051Z,47.10
2019-05-02T16:55:38.683Z,46.80
2019-05-02T16:58:09.562Z,46.80
2019-05-02T17:00:42.533Z,46.90
2019-05-02T17:03:17.285Z,46.60
2019-05-02T17:05:48.027Z,46.40
2019-05-02T17:08:25.497Z,46.50
2019-05-02T17:11:15.353Z,46.40
2019-05-02T17:13:43.709Z,46.60
2019-05-02T17:16:17.161Z,46.90
2019-05-02T17:18:48.209Z,46.90
2019-05-02T17:21:22.105Z,46.80
2019-05-02T17:23:52.797Z,46.90
2019-05-02T17:26:24.114Z,46.90
2019-05-02T17:28:54.927Z,47.20
2019-05-02T17:31:25.605Z,46.80
2019-05-02T17:33:56.384Z,46.90
2019-05-02T17:36:28.482Z,46.90
2019-05-02T17:39:06.364Z,47.70
2019-05-02T17:41:32.566Z,47.50
2019-05-02T17:44:03.656Z,47.00
2019-05-02T17:46:36.337Z,47.00
2019-05-02T17:49:07.405Z,47.20
2019-05-02T17:52:05.409Z,47.10
2019-05-02T17:54:29.504Z,47.90
2019-05-02T17:57:02.168Z,52.90
2019-05-02T17:59:34.670Z,52.90
2019-05-02T18:02:06.497Z,52.40
2019-05-02T18:04:39.022Z,54.00
2019-05-02T18:07:11.538Z,53.80
2019-05-02T18:09:42.375Z,54.90
2019-05-02T18:12:16.209Z,55.00
2019-05-02T18:14:45.809Z,55.50
2019-05-02T18:17:16.797Z,55.80
2019-05-02T18:19:48.097Z,55.70
2019-05-02T18:22:24.168Z,55.00
2019-05-02T18:24:52.662Z,55.20
2019-05-02T18:27:23.629Z,55.50
2019-05-02T18:29:54.703Z,55.30
2019-05-02T18:32:26.226Z,56.50
2019-05-02T18:35:01.280Z,55.20
2019-05-02T18:37:30.310Z,54.10
2019-05-02T18:40:03.028Z,52.20
2019-05-02T18:42:34.888Z,51.70
2019-05-02T18:45:07.325Z,51.00
2019-05-02T18:47:38.328Z,50.30
2019-05-02T18:50:31.904Z,50.00
2019-05-02T18:53:03.564Z,49.60
2019-05-02T18:55:34.558Z,49.50
2019-05-02T18:58:05.769Z,49.70
2019-05-02T19:00:39.499Z,50.00
2019-05-02T19:03:15.128Z,50.10
2019-05-02T19:05:46.369Z,50.30
2019-05-02T19:08:27.591Z,50.40
2019-05-02T19:11:02.452Z,50.40
2019-05-02T19:13:22.656Z,50.40
2019-05-02T19:15:53.573Z,50.50
2019-05-02T19:18:24.739Z,51.20
2019-05-02T19:21:04.353Z,51.70
2019-05-02T19:23:35.478Z,52.10
2019-05-02T19:26:12.500Z,52.00
2019-05-02T19:28:49.088Z,52.20
2019-05-02T19:31:22.338Z,53.10
2019-05-02T19:33:53.434Z,52.80
2019-05-02T19:36:27.596Z,54.20
2019-05-02T19:39:03.277Z,54.70
2019-05-02T19:41:29.407Z,54.50
2019-05-02T19:44:02.196Z,54.70
2019-05-02T19:46:38.585Z,54.80
2019-05-02T19:49:06.988Z,55.50
2019-05-02T19:51:39.349Z,55.20
2019-05-02T19:54:12.479Z,55.60
2019-05-02T19:56:47.413Z,55.40
2019-05-02T19:59:24.499Z,55.80
2019-05-02T20:01:52.210Z,55.60
2019-05-02T20:04:23.533Z,56.10
2019-05-02T20:06:54.717Z,55.80
2019-05-02T20:09:26.239Z,56.40
2019-05-02T20:11:57.295Z,56.90
2019-05-02T20:14:28.940Z,57.40
2019-05-02T20:17:02.071Z,57.50
2019-05-02T20:19:35.567Z,57.90
2019-05-02T20:22:16.162Z,57.00
2019-05-02T20:24:55.245Z,57.50
2019-05-02T20:27:28.213Z,57.50
2019-05-02T20:29:58.686Z,57.50
2019-05-02T20:32:32.128Z,57.70
2019-05-02T20:35:03.214Z,57.80
2019-05-02T20:37:34.522Z,57.00
2019-05-02T20:40:06.068Z,57.50
2019-05-02T20:42:36.975Z,58.10
2019-05-02T20:45:08.080Z,58.40
2019-05-02T20:47:39.130Z,57.90
2019-05-02T20:50:11.977Z,58.60
2019-05-02T20:52:42.566Z,58.60
2019-05-02T20:55:13.767Z,57.20
2019-05-02T20:57:44.558Z,55.50
2019-05-02T21:00:23.533Z,54.60
2019-05-02T21:02:54.522Z,53.70
2019-05-02T21:05:28.604Z,52.90
2019-05-02T21:08:22.026Z,52.50
2019-05-02T21:10:54.214Z,52.10
2019-05-02T21:13:25.320Z,51.80
2019-05-02T21:15:56.796Z,51.60
2019-05-02T21:18:27.812Z,51.50
2019-05-02T21:20:58.638Z,51.30
2019-05-02T21:23:41.946Z,51.20
2019-05-02T21:26:01.995Z,51.10
2019-05-02T21:28:32.895Z,51.10
2019-05-02T21:31:03.897Z,51.10
2019-05-02T21:33:37.798Z,51.00
2019-05-02T21:36:08.988Z,51.10
2019-05-02T21:38:39.850Z,51.10
2019-05-02T21:41:11.564Z,51.10
2019-05-02T21:43:42.758Z,51.00
2019-05-02T21:46:13.294Z,51.10
2019-05-02T21:48:44.303Z,51.00
2019-05-02T21:51:22.635Z,51.10
2019-05-02T21:54:12.483Z,51.10
2019-05-02T21:56:59.055Z,51.10
2019-05-02T21:59:29.790Z,51.00
2019-05-02T22:02:02.402Z,50.70
2019-05-02T22:04:33.575Z,50.60
2019-05-02T22:07:04.520Z,50.90
2019-05-02T22:09:35.348Z,51.10
2019-05-02T22:12:06.063Z,50.90
2019-05-02T22:14:37.115Z,50.80
2019-05-02T22:17:08.222Z,50.80
2019-05-02T22:19:38.987Z,50.70
2019-05-02T22:22:09.819Z,50.60
2019-05-02T22:24:42.137Z,50.50
2019-05-02T22:27:12.923Z,50.60
2019-05-02T22:29:43.834Z,50.50
2019-05-02T22:32:14.589Z,50.50
2019-05-02T22:34:45.583Z,50.00
2019-05-02T22:37:18.057Z,49.70
2019-05-02T22:39:56.721Z,49.50
2019-05-02T22:42:27.750Z,49.50
2019-05-02T22:44:58.616Z,49.50
2019-05-02T22:47:29.537Z,49.50
2019-05-02T22:50:00.347Z,49.40
2019-05-02T22:52:32.248Z,49.30
2019-05-02T22:55:03.162Z,49.30
2019-05-02T22:57:34.134Z,49.20
2019-05-02T23:00:05.335Z,49.10
2019-05-02T23:02:36.186Z,49.40
2019-05-02T23:05:07.498Z,49.20
2019-05-02T23:07:38.325Z,49.10
2019-05-02T23:10:09.322Z,49.10
2019-05-02T23:12:42.277Z,49.40
2019-05-02T23:15:12.937Z,48.90
2019-05-02T23:17:43.886Z,49.00
2019-05-02T23:20:15.013Z,49.00
2019-05-02T23:22:45.955Z,48.90
2019-05-02T23:25:34.578Z,49.20
2019-05-02T23:28:13.511Z,49.10
2019-05-02T23:30:44.562Z,49.30
2019-05-02T23:33:15.549Z,49.10
2019-05-02T23:35:46.367Z,49.00
2019-05-02T23:38:17.297Z,49.10
2019-05-02T23:40:48.138Z,49.00
2019-05-02T23:43:19.119Z,49.00
2019-05-02T23:45:51.657Z,48.80
2019-05-02T23:48:22.387Z,48.90
2019-05-02T23:50:53.020Z,48.90
2019-05-02T23:53:23.883Z,48.90
2019-05-02T23:55:54.842Z,49.00
2019-05-02T23:58:25.652Z,49.00
